• Join FlightAware (Why Join?)
  • Login
  • US Flag 
10:02AM EST


 

Airport Tracker/Info


-or-


 

Live Flight TrackerFlight Track Log ✈ CCA9573 ✈ 30-Jan-2014 ✈ ZBAA / PEK - ZYMD / MDG

Flight Track Log - Related Links

Times and Time Zones

All times are in EST time to prevent confusion due to time zone crossing. See the CCA9573 flight status page for this flight to view local times or setup timezone preferences in your user account.

Time Position Orientation Groundspeed Altitude Reporting Facility
EST Latitude Longitude Course Direction KTS MPH feet Rate Location/Type
09:55PM 40.1994 116.8657 61° Northeast  Level Estimated
09:56PM 40.2291 116.9361 61° Northeast  Level Estimated
09:57PM 40.2587 117.0066 61° Northeast  Level Estimated
09:58PM 40.2883 117.0772 61° Northeast  Level Estimated
09:59PM 40.3179 117.1478 61° Northeast  Level Estimated
10:00PM 40.3475 117.2185 61° Northeast  Level Estimated
10:01PM 40.3770 117.2892 61° Northeast  Level Estimated
10:02PM 40.4064 117.3600 61° Northeast  Level Estimated
10:03PM 40.4358 117.4309 61° Northeast  Level Estimated
10:04PM 40.4652 117.5018 61° Northeast  Level Estimated
10:05PM 40.4945 117.5728 61° Northeast  Level Estimated
10:06PM 40.5238 117.6439 62° Northeast  Level Estimated
10:07PM 40.5530 117.7150 62° Northeast  Level Estimated
10:08PM 40.5822 117.7862 62° Northeast  Level Estimated
10:09PM 40.6114 117.8574 62° Northeast  Level Estimated
10:10PM 40.6404 117.9287 62° Northeast  Level Estimated
10:11PM 40.6695 118.0001 62° Northeast  Level Estimated
10:12PM 40.6985 118.0715 62° Northeast  Level Estimated
10:13PM 40.7275 118.1430 62° Northeast  Level Estimated
10:14PM 40.7564 118.2145 62° Northeast  Level Estimated
10:15PM 40.7853 118.2861 62° Northeast  Level Estimated
10:16PM 40.8141 118.3578 62° Northeast  Level Estimated
10:17PM 40.8429 118.4296 62° Northeast  Level Estimated
10:18PM 40.8717 118.5014 62° Northeast  Level Estimated
10:19PM 40.9004 118.5732 62° Northeast  Level Estimated
10:20PM 40.9290 118.6451 62° Northeast  Level Estimated
10:21PM 40.9576 118.7171 62° Northeast  Level Estimated
10:22PM 40.9862 118.7892 62° Northeast  Level Estimated
10:23PM 41.0147 118.8613 62° Northeast  Level Estimated
10:24PM 41.0432 118.9335 62° Northeast  Level Estimated
10:25PM 41.0717 119.0057 62° Northeast  Level Estimated
10:26PM 41.1000 119.0780 62° Northeast  Level Estimated
10:27PM 41.1284 119.1504 63° Northeast  Level Estimated
10:28PM 41.1567 119.2228 63° Northeast  Level Estimated
10:29PM 41.1849 119.2953 63° Northeast  Level Estimated
10:30PM 41.2131 119.3678 63° Northeast  Level Estimated
10:31PM 41.2413 119.4404 63° Northeast  Level Estimated
10:32PM 41.2694 119.5131 63° Northeast  Level Estimated
10:33PM 41.2975 119.5858 63° Northeast  Level Estimated
10:34PM 41.3255 119.6586 63° Northeast  Level Estimated
10:35PM 41.3535 119.7315 63° Northeast  Level Estimated
10:36PM 41.3814 119.8044 63° Northeast  Level Estimated
10:37PM 41.4093 119.8774 63° Northeast  Level Estimated
10:38PM 41.4371 119.9505 63° Northeast  Level Estimated
10:39PM 41.4649 120.0236 63° Northeast  Level Estimated
10:40PM 41.4927 120.0967 63° Northeast  Level Estimated
10:41PM 41.5204 120.1700 63° Northeast  Level Estimated
10:42PM 41.5480 120.2433 63° Northeast  Level Estimated
10:43PM 41.5757 120.3167 63° Northeast  Level Estimated
10:44PM 41.6032 120.3901 63° Northeast  Level Estimated
10:45PM 41.6307 120.4636 63° Northeast  Level Estimated
10:46PM 41.6582 120.5371 63° Northeast  Level Estimated
10:47PM 41.6856 120.6107 63° Northeast  Level Estimated
10:48PM 41.7130 120.6844 64° Northeast  Level Estimated
10:49PM 41.7403 120.7581 64° Northeast  Level Estimated
10:50PM 41.7676 120.8319 64° Northeast  Level Estimated
10:51PM 41.7948 120.9058 64° Northeast  Level Estimated
10:52PM 41.8220 120.9798 64° Northeast  Level Estimated
10:53PM 41.8492 121.0537 64° Northeast  Level Estimated
10:54PM 41.8763 121.1278 64° Northeast  Level Estimated
10:55PM 41.9033 121.2019 64° Northeast  Level Estimated
10:56PM 41.9303 121.2761 64° Northeast  Level Estimated
10:57PM 41.9572 121.3503 64° Northeast  Level Estimated
10:58PM 41.9841 121.4246 64° Northeast  Level Estimated
10:59PM 42.0110 121.4990 64° Northeast  Level Estimated
11:00PM 42.0378 121.5734 64° Northeast  Level Estimated
11:01PM 42.0646 121.6479 64° Northeast  Level Estimated
11:02PM 42.0913 121.7225 64° Northeast  Level Estimated
11:03PM 42.1179 121.7971 64° Northeast  Level Estimated
11:04PM 42.1445 121.8718 64° Northeast  Level Estimated
11:05PM 42.1711 121.9465 64° Northeast  Level Estimated
11:06PM 42.1976 122.0213 64° Northeast  Level Estimated
11:07PM 42.2241 122.0962 64° Northeast  Level Estimated
11:08PM 42.2505 122.1711 65° Northeast  Level Estimated
11:09PM 42.2769 122.2461 65° Northeast  Level Estimated
11:10PM 42.3032 122.3212 65° Northeast  Level Estimated
11:11PM 42.3294 122.3963 65° Northeast  Level Estimated
11:12PM 42.3557 122.4715 65° Northeast  Level Estimated
11:13PM 42.3818 122.5467 65° Northeast  Level Estimated
11:14PM 42.4080 122.6220 65° Northeast  Level Estimated
11:15PM 42.4340 122.6974 65° Northeast  Level Estimated
11:16PM 42.4600 122.7728 65° Northeast  Level Estimated
11:17PM 42.4860 122.8483 65° Northeast  Level Estimated
11:18PM 42.5119 122.9239 65° Northeast  Level Estimated
11:19PM 42.5378 122.9995 65° Northeast  Level Estimated
11:20PM 42.5636 123.0752 65° Northeast  Level Estimated
11:21PM 42.5894 123.1509 65° Northeast  Level Estimated
11:22PM 42.6151 123.2268 65° Northeast  Level Estimated
11:23PM 42.6408 123.3026 65° Northeast  Level Estimated
11:24PM 42.6664 123.3786 65° Northeast  Level Estimated
11:25PM 42.6920 123.4546 65° Northeast  Level Estimated
11:26PM 42.7175 123.5306 65° Northeast  Level Estimated
11:27PM 42.7430 123.6067 65° Northeast  Level Estimated
11:28PM 42.7684 123.6829 66° East  Level Estimated
11:29PM 42.7938 123.7592 66° East  Level Estimated
11:30PM 42.8191 123.8355 66° East  Level Estimated
11:31PM 42.8443 123.9118 66° East  Level Estimated
11:32PM 42.8696 123.9883 66° East  Level Estimated
11:33PM 42.8947 124.0648 66° East  Level Estimated
11:34PM 42.9199 124.1413 66° East  Level Estimated
11:35PM 42.9449 124.2180 66° East  Level Estimated
11:36PM 42.9700 124.2946 66° East  Level Estimated
11:37PM 42.9949 124.3714 66° East  Level Estimated
11:38PM 43.0198 124.4482 66° East  Level Estimated
11:39PM 43.0447 124.5251 66° East  Level Estimated
11:40PM 43.0695 124.6020 66° East  Level Estimated
11:41PM 43.0943 124.6790 66° East  Level Estimated
11:42PM 43.1190 124.7561 66° East  Level Estimated
11:43PM 43.1436 124.8332 66° East  Level Estimated
11:44PM 43.1682 124.9104 66° East  Level Estimated
11:45PM 43.1928 124.9876 66° East  Level Estimated
11:46PM 43.2173 125.0649 66° East  Level Estimated
11:47PM 43.2417 125.1423 67° East  Level Estimated
11:48PM 43.2661 125.2197 67° East  Level Estimated
11:49PM 43.2905 125.2972 67° East  Level Estimated
11:50PM 43.3148 125.3747 67° East  Level Estimated
11:51PM 43.3390 125.4524 67° East  Level Estimated
11:52PM 43.3632 125.5301 67° East  Level Estimated
11:53PM 43.3873 125.6078 67° East  Level Estimated
11:54PM 43.4114 125.6856 67° East  Level Estimated
11:55PM 43.4354 125.7635 67° East  Level Estimated
11:56PM 43.4594 125.8414 67° East  Level Estimated
11:57PM 43.4833 125.9194 67° East  Level Estimated
11:58PM 43.5072 125.9974 67° East  Level Estimated
11:59PM 43.5310 126.0755 67° East  Level Estimated
12:00AM 43.5548 126.1537 67° East  Level Estimated
12:01AM 43.5785 126.2319 67° East  Level Estimated
12:02AM 43.6021 126.3102 67° East  Level Estimated
12:03AM 43.6258 126.3886 67° East  Level Estimated
12:04AM 43.6493 126.4670 67° East  Level Estimated
12:05AM 43.6728 126.5455 67° East  Level Estimated
12:06AM 43.6962 126.6240 68° East  Level Estimated
12:07AM 43.7196 126.7026 68° East  Level Estimated
12:08AM 43.7430 126.7813 68° East  Level Estimated
12:09AM 43.7663 126.8600 68° East  Level Estimated
12:10AM 43.7895 126.9388 68° East  Level Estimated
12:11AM 43.8126 127.0177 68° East  Level Estimated
12:12AM 43.8358 127.0966 68° East  Level Estimated
12:13AM 43.8588 127.1755 68° East  Level Estimated
12:14AM 43.8818 127.2546 68° East  Level Estimated
12:15AM 43.9048 127.3337 68° East  Level Estimated
12:16AM 43.9277 127.4128 68° East  Level Estimated
12:17AM 43.9506 127.4920 68° East  Level Estimated
12:18AM 43.9733 127.5713 68° East  Level Estimated
12:19AM 43.9961 127.6506 68° East  Level Estimated
12:20AM 44.0188 127.7300 68° East  Level Estimated
12:21AM 44.0414 127.8095 68° East  Level Estimated
12:22AM 44.0640 127.8890 68° East  Level Estimated
12:23AM 44.0865 127.9686 68° East  Level Estimated
12:24AM 44.1089 128.0482 69° East  Level Estimated
12:25AM 44.1314 128.1279 69° East  Level Estimated
12:26AM 44.1537 128.2077 69° East  Level Estimated
12:27AM 44.1760 128.2875 69° East  Level Estimated
12:28AM 44.1982 128.3674 69° East  Level Estimated
12:29AM 44.2204 128.4473 69° East  Level Estimated
12:30AM 44.2425 128.5273 69° East  Level Estimated
12:31AM 44.2646 128.6074 69° East  Level Estimated
12:32AM 44.2866 128.6875 69° East  Level Estimated
12:33AM 44.3086 128.7677 69° East  Level Estimated
12:34AM 44.3305 128.8479 69° East  Level Estimated
12:35AM 44.3523 128.9282 69° East  Level Estimated
12:36AM 44.3741 129.0086 69° East  Level Estimated
12:37AM 44.3959 129.0890 69° East  Level Estimated
12:38AM 44.4175 129.1695 69° East  Level Estimated
12:39AM 44.4392 129.2500 69° East  Level Estimated
12:40AM 44.4607 129.3306 69° East  Level Estimated
12:41AM 44.4822 129.4113 69° East  Level Estimated
12:42AM 44.5037 129.4920 70° East  Level Estimated
12:43AM 44.5241 129.5690 70° East  Level Estimated
12:44AM 44.5241 129.5690 35° Northeast  Level Estimated
12:45AM 44.5241 129.5690 35° Northeast  Level Estimated
12:46AM 44.5241 129.5690 35° Northeast  Level Estimated
12:47AM 44.5241 129.5690 35° Northeast  Level Estimated
12:48AM 44.5241 129.5690 35° Northeast  Level Estimated
12:49AM 44.5241 129.5690 35° Northeast  Level Estimated
12:50AM 44.5241 129.5690 35° Northeast  Level Estimated
12:51AM 44.5241 129.5690 35° Northeast  Level Estimated
12:52AM 44.5241 129.5690 35° Northeast  Level Estimated
12:53AM 44.5241 129.5690 35° Northeast  Level Estimated
12:54AM 44.5241 129.5690 35° Northeast  Level Estimated
12:55AM 44.5241 129.5690 35° Northeast  Level Estimated
12:56AM 44.5241 129.5690 35° Northeast  Level Estimated
12:57AM 44.5241 129.5690 35° Northeast  Level Estimated
12:58AM 44.5241 129.5690 35° Northeast  Level Estimated
12:59AM 44.5241 129.5690 35° Northeast  Level Estimated